Landa, Spain
Current Conditions -  °F | °C
As of 9:30 PM on Friday 28 Nov 2014 (Local Time) from LEBB Reporting Station
Broken Clouds Broken Clouds  
Wind Chill: 63°   Ceiling: 6500
Heat Index: 63°   Visibility: 6mi
Dew Point: 50°   Wind: 12mph
Humidity: 63%   Direction: 160°SSE
Pressure: 29.32"   Gusts: NA
Location:  43.38°N, 2.95°W
Report Text: LEBB 282030Z 16010KT 120V200 9999 SCT055 BKN065 17/10 Q0993 TEMPO 3000 RA BKN014
Loading
Personal Weather Stations






























Interactive Weather Map New forecast layout! Learn more

10-Day Weather Forecast

Advertisements
Track Severe Weather on mobile